Aérodrome :
LOGIN :

S'inscrire | Disclaimer

   EN    FR    IT 

 










Légende :    VFR   VFR Marginal   IFR   IFR Intensif   IFR Très Intensif
Visi : 
Plafond : 
>= 8 km
>= 3000ft
5 à 8 km
1000 à 3000 ft
1500m à 5 km
500 à 1000 ft
800 à 1500m
200 à 500 ft
< 800m
< 200 ft
Symboles :   Orages  Brouillard  Fortes neiges  Fortes précipitations  Vent > 20 kt
SIGMETs :   Divers  Orages  Givrage  Turbulence  Onde Orograph.  Cendres Volcan.







- Altitude de l'aérodrome : 247 ft
- Code IATA : BLL


EKBI - Billund

DERNIER METAR :
  • 211050Z AUTO 23010KT 7000 OVC008/// 10/08 Q1028

METARs EXPIRÉS :
  • 211020Z AUTO 24011KT 7000 OVC007/// 10/08 Q1028
  • 210950Z AUTO 23011KT 6000 BKN006/// 10/08 Q1028
  • 210920Z AUTO 22011KT 4900 BR OVC006/// 09/08 Q1028
  • 210850Z AUTO 23010KT 4500 BR OVC005/// 08/07 Q1028
  • 210820Z AUTO 23012KT 4300 BR OVC005/// 08/08 Q1028

TAF TAF EKBI
Valide du 21 à 12h jusqu'au 22 à 12h UTC


211112Z 2112/2212 24010KT 6000 BKN010
TEMPO 2112/2122 2500 BR BKN006
BECMG 2122/2124 0300 FG VV001
TEMPO 2200/2212 2500 BR SCT003
Pas de NOTAMs connus pour ce terrain.



MET'MAP, la Météo Aéronautique d'un coup d'oeil ! - Copyright ORBIFLY Décembre 2007 - Disclaimer

ORBIFLY MET'MAP TEAM :

Programmation & Développement : Alexandra Zaïnal
Conception & Développement : Baudouin d'Aumeries
Co-Programmation & Développement : Marc-Olivier Méhu
Soutien technique & logistique : Manuel Goepfert

Contact : metmap@orbifly.com




SOURCES & CREDITS :

   NOAA